createdAt,value
2022-10-31T00:01:53.195Z,9.38
2022-10-31T00:04:21.089Z,9.07
2022-10-31T00:06:48.629Z,10.02
2022-10-31T00:09:16.504Z,10.27
2022-10-31T00:11:44.073Z,11.20
2022-10-31T00:14:11.929Z,9.90
2022-10-31T00:16:39.523Z,8.55
2022-10-31T00:19:08.009Z,13.65
2022-10-31T00:21:36.566Z,9.18
2022-10-31T00:24:04.751Z,10.55
2022-10-31T00:26:32.789Z,9.88
2022-10-31T00:29:00.787Z,10.10
2022-10-31T00:31:28.631Z,8.80
2022-10-31T00:33:56.678Z,9.00
2022-10-31T00:36:24.234Z,10.82
2022-10-31T00:38:52.021Z,9.48
2022-10-31T00:41:22.506Z,9.15
2022-10-31T00:43:50.345Z,9.00
2022-10-31T00:46:18.170Z,8.60
2022-10-31T00:48:45.969Z,9.48
2022-10-31T00:51:13.661Z,9.93
2022-10-31T00:53:42.933Z,9.90
2022-10-31T00:56:10.604Z,9.50
2022-10-31T00:58:38.764Z,10.65
2022-10-31T01:01:06.564Z,8.15
2022-10-31T01:03:36.776Z,7.40
2022-10-31T01:06:06.937Z,8.30
2022-10-31T01:08:35.425Z,9.10
2022-10-31T01:11:05.867Z,8.18
2022-10-31T01:13:34.906Z,6.03
2022-10-31T01:16:03.559Z,5.95
2022-10-31T01:18:31.833Z,5.18
2022-10-31T01:21:03.919Z,5.68
2022-10-31T01:23:32.370Z,5.63
2022-10-31T01:26:00.670Z,5.25
2022-10-31T01:28:28.741Z,5.18
2022-10-31T01:30:56.371Z,5.93
2022-10-31T01:33:24.161Z,6.00
2022-10-31T01:35:52.214Z,5.00
2022-10-31T01:38:20.274Z,5.05
2022-10-31T01:40:47.802Z,5.07
2022-10-31T01:43:15.711Z,5.03
2022-10-31T01:45:50.595Z,5.47
2022-10-31T01:48:19.631Z,5.40
2022-10-31T01:50:48.350Z,6.10
2022-10-31T01:53:17.306Z,7.55
2022-10-31T01:55:46.626Z,8.50
2022-10-31T01:58:20.527Z,10.55
2022-10-31T02:00:50.209Z,10.80
2022-10-31T02:03:18.932Z,11.38
2022-10-31T02:05:46.610Z,10.27
2022-10-31T02:08:17.807Z,9.05
2022-10-31T02:10:50.357Z,7.65
2022-10-31T02:13:19.178Z,6.90
2022-10-31T02:15:52.228Z,7.22
2022-10-31T02:18:21.140Z,6.53
2022-10-31T02:20:56.809Z,6.18
2022-10-31T02:23:27.893Z,5.90
2022-10-31T02:26:13.525Z,6.50
2022-10-31T02:29:05.074Z,5.38
2022-10-31T02:31:39.779Z,5.57
2022-10-31T02:34:12.221Z,5.18
2022-10-31T02:36:51.983Z,5.10
2022-10-31T02:39:46.754Z,4.55
2022-10-31T02:42:24.518Z,5.25
2022-10-31T02:45:09.667Z,6.55
2022-10-31T02:47:39.411Z,5.30
2022-10-31T02:50:07.375Z,5.32
2022-10-31T02:52:36.214Z,5.45
2022-10-31T02:55:24.243Z,4.78
2022-10-31T02:57:59.036Z,4.68
2022-10-31T03:01:05.819Z,5.43
2022-10-31T03:03:43.045Z,4.50
2022-10-31T03:06:15.967Z,4.90
2022-10-31T03:08:49.399Z,4.80
2022-10-31T03:11:19.212Z,4.47
2022-10-31T03:14:01.501Z,4.63
2022-10-31T03:16:33.046Z,4.30
2022-10-31T03:19:02.708Z,4.20
2022-10-31T03:21:36.419Z,3.55
2022-10-31T03:24:06.319Z,3.67
2022-10-31T03:26:37.470Z,4.47
2022-10-31T03:29:07.627Z,4.38
2022-10-31T03:31:42.710Z,4.20
2022-10-31T03:34:11.635Z,3.85
2022-10-31T03:36:40.758Z,4.07
2022-10-31T03:39:12.882Z,4.50
2022-10-31T03:41:42.654Z,4.20
2022-10-31T03:44:14.181Z,4.40
2022-10-31T03:46:42.340Z,4.70
2022-10-31T03:49:10.369Z,4.43
2022-10-31T03:51:59.897Z,4.40
2022-10-31T03:54:32.841Z,3.90
2022-10-31T03:57:14.371Z,3.63
2022-10-31T03:59:45.511Z,3.20
2022-10-31T04:02:18.015Z,3.83
2022-10-31T04:04:46.555Z,3.92
2022-10-31T04:07:14.855Z,3.22
2022-10-31T04:09:45.150Z,3.95
2022-10-31T04:12:16.075Z,3.50
2022-10-31T04:15:02.520Z,4.00
2022-10-31T04:17:33.186Z,4.03
2022-10-31T04:20:01.863Z,4.40
2022-10-31T04:22:30.198Z,3.58
2022-10-31T04:24:58.191Z,4.18
2022-10-31T04:27:25.852Z,4.43
2022-10-31T04:29:53.919Z,4.78
2022-10-31T04:32:21.612Z,3.80
2022-10-31T04:34:49.429Z,3.83
2022-10-31T04:37:16.966Z,3.65
2022-10-31T04:39:44.976Z,4.00
2022-10-31T04:42:31.971Z,4.13
2022-10-31T04:45:05.017Z,3.70
2022-10-31T04:47:34.609Z,4.03
2022-10-31T04:50:03.886Z,4.53
2022-10-31T04:52:32.381Z,4.53
2022-10-31T04:55:00.228Z,3.97
2022-10-31T04:57:54.127Z,4.45
2022-10-31T05:00:23.762Z,3.88
2022-10-31T05:02:59.602Z,4.43
2022-10-31T05:05:30.570Z,5.60
2022-10-31T05:07:59.360Z,4.93
2022-10-31T05:10:29.381Z,5.05
2022-10-31T05:13:03.405Z,5.68
2022-10-31T05:16:09.463Z,5.25
2022-10-31T05:18:55.686Z,5.28
2022-10-31T05:21:42.129Z,6.93
2022-10-31T05:24:09.982Z,5.85
2022-10-31T05:26:39.949Z,7.18
2022-10-31T05:29:07.624Z,6.38
2022-10-31T05:31:35.816Z,6.80
2022-10-31T05:34:05.107Z,5.53
2022-10-31T05:36:51.579Z,6.93
2022-10-31T05:39:23.145Z,6.75
2022-10-31T05:41:55.766Z,5.72
2022-10-31T05:44:27.231Z,5.15
2022-10-31T05:47:07.689Z,5.05
2022-10-31T05:50:04.903Z,4.80
2022-10-31T05:52:49.527Z,5.70
2022-10-31T05:55:27.114Z,5.45
2022-10-31T05:58:05.843Z,4.47
2022-10-31T06:00:36.074Z,5.03
2022-10-31T06:05:55.003Z,5.10
2022-10-31T06:08:25.991Z,4.75
2022-10-31T06:10:55.272Z,4.88
2022-10-31T06:13:43.070Z,5.53
2022-10-31T06:16:18.069Z,5.65
2022-10-31T06:18:47.454Z,12.02
2022-10-31T06:21:18.053Z,10.20
2022-10-31T06:23:47.891Z,9.60
2022-10-31T06:26:44.654Z,8.88
2022-10-31T06:29:12.543Z,7.18
2022-10-31T06:32:00.839Z,7.80
2022-10-31T06:34:30.089Z,8.18
2022-10-31T06:36:58.618Z,6.65
2022-10-31T06:39:27.322Z,5.85
2022-10-31T06:41:54.919Z,7.57
2022-10-31T06:44:24.056Z,14.77
2022-10-31T06:47:00.507Z,7.97
2022-10-31T06:50:00.270Z,7.05
2022-10-31T06:52:28.263Z,6.13
2022-10-31T06:54:57.234Z,6.47
2022-10-31T06:57:24.816Z,5.72
2022-10-31T06:59:52.677Z,5.85
2022-10-31T07:02:37.289Z,5.15
2022-10-31T07:05:06.322Z,6.63
2022-10-31T07:07:34.371Z,6.65
2022-10-31T07:10:02.344Z,7.07
2022-10-31T07:13:00.123Z,5.77
2022-10-31T07:15:29.251Z,5.05
2022-10-31T07:20:27.277Z,4.55
2022-10-31T07:22:55.441Z,4.65
2022-10-31T07:25:25.066Z,3.95
2022-10-31T07:28:16.917Z,4.65
2022-10-31T07:30:51.667Z,4.32
2022-10-31T07:33:21.583Z,4.50
2022-10-31T07:36:09.920Z,4.22
2022-10-31T07:38:42.637Z,4.88
2022-10-31T07:41:10.909Z,4.78
2022-10-31T07:43:43.071Z,4.78
2022-10-31T07:46:30.934Z,5.95
2022-10-31T07:49:33.687Z,6.28
2022-10-31T07:52:20.113Z,6.75
2022-10-31T07:55:07.107Z,6.97
2022-10-31T07:57:40.050Z,6.60
2022-10-31T08:00:11.577Z,6.72
2022-10-31T08:02:45.444Z,6.05
2022-10-31T08:05:41.883Z,5.85
2022-10-31T08:08:31.267Z,4.97
2022-10-31T08:11:01.263Z,5.75
2022-10-31T08:13:29.186Z,6.05
2022-10-31T08:15:56.916Z,5.85
2022-10-31T08:18:26.734Z,6.63
2022-10-31T08:20:55.289Z,5.75
2022-10-31T08:23:23.252Z,5.72
2022-10-31T08:25:50.910Z,5.32
2022-10-31T08:28:18.834Z,4.85
2022-10-31T08:30:50.134Z,5.65
2022-10-31T08:33:36.522Z,6.13
2022-10-31T08:36:31.219Z,8.13
2022-10-31T08:39:12.757Z,6.57
2022-10-31T08:41:41.033Z,5.50
2022-10-31T08:44:16.685Z,5.80
2022-10-31T08:46:45.098Z,5.40
2022-10-31T08:49:12.981Z,5.95
2022-10-31T08:51:42.122Z,5.85
2022-10-31T08:54:10.187Z,6.00
2022-10-31T08:57:00.836Z,6.57
2022-10-31T08:59:41.060Z,7.00
2022-10-31T09:02:23.761Z,7.47
2022-10-31T09:04:55.101Z,6.60
2022-10-31T09:07:23.201Z,7.22
2022-10-31T09:09:51.098Z,7.88
2022-10-31T09:12:20.249Z,7.15
2022-10-31T09:15:08.595Z,6.90
2022-10-31T09:17:47.992Z,5.38
2022-10-31T09:20:32.262Z,5.78
2022-10-31T09:23:00.794Z,4.78
2022-10-31T09:25:30.166Z,5.85
2022-10-31T09:28:27.065Z,5.57
2022-10-31T09:30:56.559Z,4.88
2022-10-31T09:33:44.593Z,4.60
2022-10-31T09:36:35.099Z,3.97
2022-10-31T09:39:04.046Z,4.03
2022-10-31T09:41:51.893Z,4.13
2022-10-31T09:44:29.808Z,4.13
2022-10-31T09:47:04.406Z,4.13
2022-10-31T09:49:38.849Z,4.70
2022-10-31T09:52:20.680Z,5.28
2022-10-31T09:54:49.159Z,5.30
2022-10-31T09:57:18.713Z,5.00
2022-10-31T09:59:49.715Z,5.70
2022-10-31T10:02:25.868Z,6.78
2022-10-31T10:05:05.472Z,7.68
2022-10-31T10:07:56.225Z,6.35
2022-10-31T10:10:55.694Z,6.90
2022-10-31T10:13:52.412Z,6.30
2022-10-31T10:16:52.142Z,6.55
2022-10-31T10:19:35.000Z,7.07
2022-10-31T10:22:02.573Z,6.43
2022-10-31T10:24:56.676Z,7.13
2022-10-31T10:27:33.470Z,6.57
2022-10-31T10:30:04.431Z,5.95
2022-10-31T10:32:49.300Z,5.72
2022-10-31T10:35:34.235Z,5.65
2022-10-31T10:38:05.152Z,6.07
2022-10-31T10:40:33.071Z,5.10
2022-10-31T10:43:23.692Z,5.03
2022-10-31T10:46:11.979Z,5.32
2022-10-31T10:48:44.109Z,4.85
2022-10-31T10:51:32.024Z,4.60
2022-10-31T10:54:14.819Z,6.15
2022-10-31T10:56:51.739Z,7.22
2022-10-31T10:59:21.491Z,5.78
2022-10-31T11:01:51.039Z,4.95
2022-10-31T11:04:35.412Z,6.10
2022-10-31T11:07:10.601Z,5.60
2022-10-31T11:09:39.042Z,5.20
2022-10-31T11:12:09.382Z,4.90
2022-10-31T11:15:06.529Z,4.97
2022-10-31T11:17:35.713Z,5.22
2022-10-31T11:20:04.933Z,7.22
2022-10-31T11:22:32.963Z,8.80
2022-10-31T11:25:00.768Z,7.75
2022-10-31T11:27:28.901Z,5.68
2022-10-31T11:30:05.782Z,6.53
2022-10-31T11:32:33.668Z,6.50
2022-10-31T11:35:03.649Z,7.72
2022-10-31T11:37:36.154Z,10.80
2022-10-31T11:40:05.919Z,8.80
2022-10-31T11:42:38.294Z,6.07
2022-10-31T11:45:09.099Z,5.28
2022-10-31T11:47:37.819Z,9.05
2022-10-31T11:50:11.259Z,10.75
2022-10-31T11:52:40.150Z,6.80
2022-10-31T11:55:13.760Z,7.43
2022-10-31T11:57:48.892Z,4.50
2022-10-31T12:00:22.905Z,5.90
2022-10-31T12:02:51.102Z,8.48
2022-10-31T12:05:28.706Z,6.40
2022-10-31T12:08:00.561Z,5.18
2022-10-31T12:10:37.707Z,5.60
2022-10-31T12:13:24.302Z,13.88
2022-10-31T12:15:54.061Z,21.52
2022-10-31T12:18:36.876Z,7.07
2022-10-31T12:21:04.587Z,5.00
2022-10-31T12:23:54.724Z,7.63
2022-10-31T12:26:36.311Z,4.28
2022-10-31T12:29:23.143Z,5.45
2022-10-31T12:32:13.866Z,4.43
2022-10-31T12:37:40.605Z,4.13
2022-10-31T12:40:26.038Z,5.65
2022-10-31T12:42:56.481Z,5.90
2022-10-31T12:45:43.085Z,4.70
2022-10-31T12:48:34.015Z,3.92
2022-10-31T12:51:11.032Z,4.03
2022-10-31T12:53:41.483Z,4.32
2022-10-31T12:56:18.524Z,4.10
2022-10-31T12:58:49.007Z,4.00
2022-10-31T13:01:23.812Z,4.90
2022-10-31T13:03:51.530Z,4.57
2022-10-31T13:06:25.929Z,4.35
2022-10-31T13:08:56.167Z,4.88
2022-10-31T13:11:26.681Z,4.90
2022-10-31T13:14:23.829Z,4.72
2022-10-31T13:16:51.960Z,4.47
2022-10-31T13:19:19.734Z,4.38
2022-10-31T13:22:00.423Z,5.68
2022-10-31T13:24:38.950Z,4.97
2022-10-31T13:27:29.784Z,5.88
2022-10-31T13:30:12.863Z,4.97
2022-10-31T13:32:46.074Z,5.45
2022-10-31T13:35:33.974Z,4.97
2022-10-31T13:38:07.470Z,5.03
2022-10-31T13:40:44.158Z,5.72
2022-10-31T13:43:21.331Z,5.97
2022-10-31T13:45:55.917Z,5.05
2022-10-31T13:48:43.944Z,5.13
2022-10-31T13:51:12.425Z,5.68
2022-10-31T13:53:57.866Z,4.93
2022-10-31T13:56:27.088Z,5.78
2022-10-31T13:58:57.713Z,4.75
2022-10-31T14:01:25.533Z,5.38
2022-10-31T14:04:13.022Z,5.45
2022-10-31T14:06:46.455Z,6.65
2022-10-31T14:09:34.130Z,6.85
2022-10-31T14:12:15.601Z,8.82
2022-10-31T14:17:18.023Z,9.48
2022-10-31T14:19:58.306Z,7.68
2022-10-31T14:22:30.460Z,7.45
2022-10-31T14:24:58.277Z,8.15
2022-10-31T14:27:29.103Z,9.98
2022-10-31T14:29:56.986Z,16.38
2022-10-31T14:32:25.761Z,25.75
2022-10-31T14:34:53.668Z,25.45
2022-10-31T14:37:26.183Z,23.25
2022-10-31T14:40:00.647Z,20.10
2022-10-31T14:42:47.202Z,21.25
2022-10-31T14:45:18.537Z,17.75
2022-10-31T14:48:07.078Z,15.23
2022-10-31T14:50:41.558Z,13.32
2022-10-31T14:53:13.577Z,13.38
2022-10-31T14:55:45.338Z,15.27
2022-10-31T14:58:17.029Z,14.00
2022-10-31T15:03:17.722Z,13.65
2022-10-31T15:05:50.346Z,11.93
2022-10-31T15:09:00.020Z,12.57
2022-10-31T15:11:28.635Z,13.43
2022-10-31T15:13:57.966Z,12.23
2022-10-31T15:19:11.674Z,14.32
2022-10-31T15:21:43.748Z,16.52
2022-10-31T15:24:12.713Z,18.13
2022-10-31T15:26:41.719Z,14.90
2022-10-31T15:29:16.799Z,13.55
2022-10-31T15:31:57.691Z,13.68
2022-10-31T15:34:41.493Z,13.50
2022-10-31T15:37:18.906Z,10.32
2022-10-31T15:39:47.654Z,10.25
2022-10-31T15:42:32.638Z,10.27
2022-10-31T15:45:04.157Z,9.95
2022-10-31T15:47:33.389Z,9.65
2022-10-31T15:50:02.385Z,14.02
2022-10-31T15:52:33.247Z,16.95
2022-10-31T15:55:17.215Z,15.52
2022-10-31T15:57:45.724Z,12.35
2022-10-31T16:00:31.011Z,11.35
2022-10-31T16:03:22.815Z,10.77
2022-10-31T16:08:25.812Z,11.35
2022-10-31T16:10:54.231Z,9.73
2022-10-31T16:13:25.318Z,9.10
2022-10-31T16:16:32.998Z,10.75
2022-10-31T16:18:53.385Z,12.68
2022-10-31T16:21:40.065Z,15.93
2022-10-31T16:24:17.553Z,23.85
2022-10-31T16:26:49.898Z,29.30
2022-10-31T16:29:40.721Z,27.58
2022-10-31T16:32:25.497Z,34.27
2022-10-31T16:35:22.542Z,103.50
2022-10-31T16:37:50.364Z,120.90
2022-10-31T16:40:18.686Z,59.38
2022-10-31T16:42:48.889Z,28.27
2022-10-31T16:45:19.741Z,23.38
2022-10-31T16:47:47.982Z,22.17
2022-10-31T16:50:23.360Z,18.40
2022-10-31T16:53:12.800Z,18.52
2022-10-31T16:55:56.659Z,19.75
2022-10-31T16:58:27.078Z,23.75
2022-10-31T17:00:55.104Z,22.40
2022-10-31T17:03:23.247Z,20.23
2022-10-31T17:05:50.947Z,20.50
2022-10-31T17:08:18.735Z,20.15
2022-10-31T17:10:47.421Z,20.42
2022-10-31T17:13:18.237Z,22.17
2022-10-31T17:15:47.629Z,24.15
2022-10-31T17:18:16.202Z,23.92
2022-10-31T17:20:44.333Z,27.08
2022-10-31T17:23:12.775Z,24.83
2022-10-31T17:25:40.670Z,31.38
2022-10-31T17:28:14.494Z,23.98
2022-10-31T17:30:43.234Z,27.23
2022-10-31T17:33:12.742Z,39.65
2022-10-31T17:35:40.431Z,38.15
2022-10-31T17:38:08.278Z,37.85
2022-10-31T17:40:37.777Z,32.58
2022-10-31T17:43:05.769Z,31.92
2022-10-31T17:45:33.418Z,24.23
2022-10-31T17:48:01.427Z,25.63
2022-10-31T17:50:29.207Z,23.35
2022-10-31T17:52:58.779Z,22.85
2022-10-31T17:55:27.137Z,29.40
2022-10-31T17:57:54.979Z,29.10
2022-10-31T18:00:24.327Z,22.52
2022-10-31T18:02:52.429Z,20.33
2022-10-31T18:05:20.046Z,17.80
2022-10-31T18:07:50.292Z,21.50
2022-10-31T18:10:18.287Z,24.75
2022-10-31T18:12:46.107Z,30.00
2022-10-31T18:15:13.751Z,29.58
2022-10-31T18:17:42.354Z,26.38
2022-10-31T18:20:10.976Z,24.23
2022-10-31T18:22:38.734Z,23.27
2022-10-31T18:25:06.628Z,25.10
2022-10-31T18:27:34.338Z,25.08
2022-10-31T18:30:01.984Z,21.75
2022-10-31T18:32:29.970Z,49.13
2022-10-31T18:34:57.649Z,50.03
2022-10-31T18:37:26.038Z,45.58
2022-10-31T18:39:53.642Z,30.27
2022-10-31T18:42:21.576Z,35.90
2022-10-31T18:44:49.302Z,31.95
2022-10-31T18:47:19.237Z,34.95
2022-10-31T18:49:46.967Z,37.10
2022-10-31T18:52:14.761Z,25.98
2022-10-31T18:54:42.502Z,28.08
2022-10-31T18:57:10.331Z,26.92
2022-10-31T18:59:37.991Z,28.33
2022-10-31T19:02:05.868Z,27.80
2022-10-31T19:04:33.546Z,27.83
2022-10-31T19:07:01.648Z,23.67
2022-10-31T19:09:30.970Z,21.45
2022-10-31T19:11:58.837Z,22.65
2022-10-31T19:14:26.470Z,21.02
2022-10-31T19:16:55.213Z,25.40
2022-10-31T19:19:23.937Z,21.90
2022-10-31T19:21:51.753Z,27.88
2022-10-31T19:24:19.400Z,29.45
2022-10-31T19:26:47.749Z,28.30
2022-10-31T19:29:15.415Z,30.08
2022-10-31T19:31:43.292Z,31.27
2022-10-31T19:34:11.262Z,29.48
2022-10-31T19:36:39.063Z,28.42
2022-10-31T19:39:06.738Z,28.52
2022-10-31T19:41:34.649Z,41.72
2022-10-31T19:44:02.340Z,47.00
2022-10-31T19:49:17.803Z,31.55
2022-10-31T19:51:45.683Z,47.53
2022-10-31T19:54:13.311Z,44.33
2022-10-31T19:56:41.256Z,29.20
2022-10-31T19:59:08.950Z,27.13
2022-10-31T20:01:37.174Z,29.77
2022-10-31T20:04:04.920Z,37.72
2022-10-31T20:06:33.772Z,30.40
2022-10-31T20:09:02.319Z,23.88
2022-10-31T20:11:30.522Z,22.95
2022-10-31T20:14:00.475Z,24.33
2022-10-31T20:16:29.371Z,26.17
2022-10-31T20:21:45.727Z,27.45
2022-10-31T20:24:13.593Z,29.25
2022-10-31T20:26:41.910Z,29.20
2022-10-31T20:29:13.245Z,30.17
2022-10-31T20:31:41.081Z,29.83
2022-10-31T20:34:08.749Z,28.55
2022-10-31T20:36:36.797Z,24.27
2022-10-31T20:39:04.819Z,23.40
2022-10-31T20:41:32.664Z,23.05
2022-10-31T20:46:47.075Z,21.63
2022-10-31T20:49:14.718Z,24.65
2022-10-31T20:51:42.616Z,24.30
2022-10-31T20:54:12.198Z,17.95
2022-10-31T20:56:40.149Z,26.95
2022-10-31T20:59:07.757Z,22.08
2022-10-31T21:01:37.021Z,20.40
2022-10-31T21:04:06.301Z,23.30
2022-10-31T21:06:34.122Z,19.42
2022-10-31T21:09:01.886Z,19.60
2022-10-31T21:11:48.782Z,22.05
2022-10-31T21:14:16.365Z,19.60
2022-10-31T21:16:44.186Z,18.30
2022-10-31T21:19:12.942Z,18.65
2022-10-31T21:21:40.808Z,17.02
2022-10-31T21:26:52.549Z,16.48
2022-10-31T21:29:20.707Z,17.25
2022-10-31T21:31:49.211Z,35.10
2022-10-31T21:34:17.122Z,37.72
2022-10-31T21:36:44.892Z,41.42
2022-10-31T21:39:12.580Z,27.88
2022-10-31T21:41:40.371Z,33.92
2022-10-31T21:44:07.983Z,23.55
2022-10-31T21:46:38.157Z,21.65
2022-10-31T21:49:07.421Z,20.55
2022-10-31T21:51:36.765Z,24.58
2022-10-31T21:54:23.042Z,24.42
2022-10-31T21:56:52.088Z,40.15
2022-10-31T21:59:20.426Z,36.85
2022-10-31T22:01:48.317Z,27.63
2022-10-31T22:04:16.069Z,22.85
2022-10-31T22:06:43.893Z,25.98
2022-10-31T22:09:12.769Z,20.63
2022-10-31T22:11:40.990Z,24.85
2022-10-31T22:14:08.558Z,24.95
2022-10-31T22:16:37.048Z,27.17
2022-10-31T22:19:07.878Z,28.73
2022-10-31T22:21:40.319Z,31.20
2022-10-31T22:24:09.929Z,25.35
2022-10-31T22:26:38.278Z,21.38
2022-10-31T22:29:26.921Z,23.10
2022-10-31T22:31:58.689Z,19.75
2022-10-31T22:34:28.303Z,18.83
2022-10-31T22:36:56.615Z,17.70
2022-10-31T22:39:24.366Z,18.80
2022-10-31T22:41:52.133Z,17.77
2022-10-31T22:44:19.823Z,17.92
2022-10-31T22:46:47.749Z,18.25
2022-10-31T22:49:15.724Z,20.52
2022-10-31T22:51:44.335Z,19.73
2022-10-31T22:54:16.126Z,18.80
2022-10-31T22:56:44.080Z,20.05
2022-10-31T22:59:15.458Z,18.70
2022-10-31T23:01:46.772Z,21.30
2022-10-31T23:04:15.679Z,21.20
2022-10-31T23:06:44.047Z,17.17
2022-10-31T23:09:14.257Z,17.27
2022-10-31T23:11:42.202Z,15.35
2022-10-31T23:14:16.449Z,16.38
2022-10-31T23:16:48.797Z,16.38
2022-10-31T23:19:27.667Z,15.65
2022-10-31T23:21:57.362Z,17.70
2022-10-31T23:24:26.916Z,15.93
2022-10-31T23:27:10.963Z,17.45
2022-10-31T23:29:40.855Z,17.42
2022-10-31T23:32:10.084Z,21.27
2022-10-31T23:34:37.742Z,19.58
2022-10-31T23:37:05.601Z,23.17
2022-10-31T23:39:33.371Z,22.45
2022-10-31T23:42:01.180Z,25.70
2022-10-31T23:44:28.969Z,28.90
2022-10-31T23:46:57.089Z,29.35
2022-10-31T23:49:24.802Z,31.77
2022-10-31T23:51:52.602Z,32.85
2022-10-31T23:54:20.140Z,34.78
2022-10-31T23:56:47.918Z,36.85
2022-10-31T23:59:15.555Z,39.08
